Time;durP1;ratioP1;P1;durP2;ratioP2;P2;SDS_P1;SDS_P2;PMS_P1;PMS_P2;Temp;Humidity;BMP_temperature;BMP_pressure;BME280_temperature;BME280_humidity;BME280_pressure;Samples;Min_cycle;Max_cycle;Signal;HPM_P1;HPM_P2
2022/10/07 00:01:39;;;;;;;;;;;13.30;99.90;;;;;;5073244;28;19958;-67
2022/10/07 00:04:05;;;;;;;;;;;13.40;99.90;;;;;;5073216;28;19957;-67
2022/10/07 00:06:30;;;;;;;;;;;13.50;99.90;;;;;;5073366;28;19904;-67
2022/10/07 00:08:56;;;;;;;;;;;13.40;99.90;;;;;;5073222;28;19916;-67
2022/10/07 00:11:23;;;;;;;;;;;13.20;99.90;;;;;;5072963;28;19905;-67
2022/10/07 00:13:51;;;;;;;;;;;13.00;99.90;;;;;;5073515;28;19904;-67
2022/10/07 00:16:19;;;;;;;;;;;13.00;99.90;;;;;;5028455;28;1267714;-66
2022/10/07 00:18:45;;;;;;;;;;;12.90;99.90;;;;;;5073907;28;20293;-67
2022/10/07 00:21:11;;;;;;;;;;;13.10;99.90;;;;;;5073764;28;19915;-67
2022/10/07 00:23:38;;;;;;;;;;;13.00;99.90;;;;;;5073924;28;19912;-67
2022/10/07 00:26:05;;;;;;;;;;;13.10;99.90;;;;;;5073954;28;19904;-67
2022/10/07 00:28:30;;;;;;;;;;;13.20;99.90;;;;;;5074559;28;19908;-67
2022/10/07 00:30:57;;;;;;;;;;;13.40;99.90;;;;;;5074210;28;19915;-67
2022/10/07 00:33:22;;;;;;;;;;;13.30;99.90;;;;;;5073498;28;20362;-67
2022/10/07 00:35:48;;;;;;;;;;;13.40;99.90;;;;;;5072851;28;19938;-67
2022/10/07 00:38:13;;;;;;;;;;;13.40;99.90;;;;;;5073658;28;19905;-67
2022/10/07 00:40:40;;;;;;;;;;;13.40;99.90;;;;;;5073542;28;20304;-68
2022/10/07 00:43:38;;;;;;;;;;;13.30;99.90;;;;;;5073720;28;19904;-67
2022/10/07 00:46:06;;;;;;;;;;;13.40;99.90;;;;;;5011402;28;19909;-67
2022/10/07 00:48:33;;;;;;;;;;;13.40;99.90;;;;;;5011453;28;19916;-68
2022/10/07 00:50:59;;;;;;;;;;;13.10;99.90;;;;;;5012112;28;19917;-67
2022/10/07 00:53:26;;;;;;;;;;;13.00;99.90;;;;;;5011402;28;20291;-67
2022/10/07 00:55:53;;;;;;;;;;;12.90;99.90;;;;;;5011249;28;19914;-67
2022/10/07 00:58:19;;;;;;;;;;;12.90;99.90;;;;;;5011574;28;19955;-67
2022/10/07 01:00:45;;;;;;;;;;;12.90;99.90;;;;;;5011340;28;19996;-67
2022/10/07 01:03:10;;;;;;;;;;;12.80;99.90;;;;;;5011075;28;20060;-67
2022/10/07 01:05:36;;;;;;;;;;;12.90;99.90;;;;;;5011267;28;20042;-67
2022/10/07 01:08:02;;;;;;;;;;;12.80;99.90;;;;;;5011758;28;19905;-67
2022/10/07 01:10:32;;;;;;;;;;;12.80;99.90;;;;;;5011116;28;19983;-67
2022/10/07 01:13:06;;;;;;;;;;;13.00;99.90;;;;;;5011261;28;19905;-67
2022/10/07 01:15:35;;;;;;;;;;;13.10;99.90;;;;;;5011072;28;20294;-67
2022/10/07 01:18:00;;;;;;;;;;;13.00;99.90;;;;;;5011006;28;20391;-67
2022/10/07 01:20:32;;;;;;;;;;;12.80;99.90;;;;;;5011417;28;19986;-66
2022/10/07 01:23:06;;;;;;;;;;;12.70;99.90;;;;;;5053107;28;19904;-67
2022/10/07 01:25:44;;;;;;;;;;;12.70;99.90;;;;;;5052860;28;19973;-68
2022/10/07 01:28:12;;;;;;;;;;;12.90;99.90;;;;;;5051598;28;19912;-67
2022/10/07 01:30:40;;;;;;;;;;;12.90;99.90;;;;;;5052616;28;20366;-67
2022/10/07 01:33:10;;;;;;;;;;;12.80;99.90;;;;;;5052991;28;19998;-68
2022/10/07 01:35:36;;;;;;;;;;;12.80;99.90;;;;;;5052530;28;19913;-67
2022/10/07 01:38:06;;;;;;;;;;;12.70;99.90;;;;;;5052711;28;19912;-68
2022/10/07 01:40:33;;;;;;;;;;;12.70;99.90;;;;;;5052628;28;19935;-68
2022/10/07 01:42:59;;;;;;;;;;;12.70;99.90;;;;;;5052910;28;19912;-68
2022/10/07 01:45:27;;;;;;;;;;;12.80;99.90;;;;;;5062092;28;19991;-68
2022/10/07 01:47:52;;;;;;;;;;;12.80;99.90;;;;;;5072269;28;19912;-67
2022/10/07 01:50:21;;;;;;;;;;;12.90;99.90;;;;;;5072544;28;19905;-67
2022/10/07 01:52:47;;;;;;;;;;;13.00;99.90;;;;;;5072467;28;19904;-67
2022/10/07 01:55:31;;;;;;;;;;;13.00;99.90;;;;;;5072699;28;20370;-67
2022/10/07 01:58:22;;;;;;;;;;;12.90;99.90;;;;;;5072564;28;19951;-67
2022/10/07 02:00:56;;;;;;;;;;;13.00;99.90;;;;;;5071961;28;19911;-68
2022/10/07 02:03:28;;;;;;;;;;;12.80;99.90;;;;;;5072281;28;19911;-68
2022/10/07 02:06:12;;;;;;;;;;;13.10;99.90;;;;;;5072303;28;20026;-68
2022/10/07 02:08:50;;;;;;;;;;;13.00;99.90;;;;;;5072698;28;19905;-68
2022/10/07 02:11:29;;;;;;;;;;;12.90;99.90;;;;;;5072588;28;20332;-68
2022/10/07 02:14:22;;;;;;;;;;;13.10;99.90;;;;;;5072076;28;19926;-68
2022/10/07 02:16:54;;;;;;;;;;;12.80;99.90;;;;;;5068843;28;19917;-68
2022/10/07 02:19:27;;;;;;;;;;;12.70;99.90;;;;;;5072795;28;19911;-68
2022/10/07 02:21:54;;;;;;;;;;;12.70;99.90;;;;;;5072269;28;19905;-68
2022/10/07 02:24:21;;;;;;;;;;;12.70;99.90;;;;;;5072228;28;19911;-68
2022/10/07 02:26:48;;;;;;;;;;;12.60;99.90;;;;;;5072684;28;20362;-68
2022/10/07 02:29:15;;;;;;;;;;;12.50;99.90;;;;;;5071984;28;20282;-68
2022/10/07 02:31:42;;;;;;;;;;;12.50;99.90;;;;;;5071766;28;19904;-68
2022/10/07 02:34:09;;;;;;;;;;;12.50;99.90;;;;;;5072862;28;19930;-68
2022/10/07 02:36:43;;;;;;;;;;;12.50;99.90;;;;;;5072084;28;19919;-68
2022/10/07 02:39:10;;;;;;;;;;;12.40;99.90;;;;;;5072318;28;19958;-68
2022/10/07 02:41:44;;;;;;;;;;;12.60;99.90;;;;;;5073055;28;19909;-68
2022/10/07 02:44:28;;;;;;;;;;;12.50;99.90;;;;;;5071720;28;19911;-69
2022/10/07 02:46:53;;;;;;;;;;;12.40;99.90;;;;;;5072348;28;20415;-68
2022/10/07 02:49:20;;;;;;;;;;;12.40;99.90;;;;;;5071812;28;19904;-68
2022/10/07 02:51:47;;;;;;;;;;;12.30;99.90;;;;;;5070978;28;19904;-68
2022/10/07 02:54:15;;;;;;;;;;;12.30;99.90;;;;;;5071792;28;19930;-68
2022/10/07 02:56:42;;;;;;;;;;;12.30;99.90;;;;;;5071667;28;19905;-68
2022/10/07 02:59:08;;;;;;;;;;;12.40;99.90;;;;;;5074149;28;19911;-68
2022/10/07 03:01:37;;;;;;;;;;;12.30;99.90;;;;;;5075389;28;20328;-68
2022/10/07 03:04:04;;;;;;;;;;;12.50;99.90;;;;;;5075416;28;20281;-68
2022/10/07 03:06:30;;;;;;;;;;;12.40;99.90;;;;;;5075801;28;20327;-68
2022/10/07 03:08:56;;;;;;;;;;;12.40;99.90;;;;;;5075299;28;19999;-68
2022/10/07 03:11:22;;;;;;;;;;;12.50;99.90;;;;;;5075091;28;19958;-68
2022/10/07 03:13:48;;;;;;;;;;;12.70;99.90;;;;;;5075339;28;19909;-69
2022/10/07 03:16:14;;;;;;;;;;;12.40;99.90;;;;;;5075197;28;19920;-68
2022/10/07 03:18:40;;;;;;;;;;;12.40;99.90;;;;;;5075057;28;20424;-68
2022/10/07 03:21:06;;;;;;;;;;;12.50;99.90;;;;;;5074895;28;20281;-68
2022/10/07 03:23:32;;;;;;;;;;;12.60;99.90;;;;;;5074648;28;19915;-68
2022/10/07 03:25:58;;;;;;;;;;;12.50;99.90;;;;;;5074950;28;20203;-68
2022/10/07 03:28:25;;;;;;;;;;;12.50;99.90;;;;;;5074423;28;19931;-68
2022/10/07 03:30:50;;;;;;;;;;;12.50;99.90;;;;;;5074350;28;19908;-68
2022/10/07 03:33:17;;;;;;;;;;;12.50;99.90;;;;;;5074708;28;20014;-68
2022/10/07 03:35:43;;;;;;;;;;;12.80;99.90;;;;;;5074807;28;19966;-68
2022/10/07 03:38:09;;;;;;;;;;;12.70;99.90;;;;;;5074895;28;19908;-68
2022/10/07 03:40:35;;;;;;;;;;;12.70;99.90;;;;;;5074714;28;19904;-68
2022/10/07 03:43:01;;;;;;;;;;;12.60;99.90;;;;;;5074414;28;19936;-68
2022/10/07 03:45:29;;;;;;;;;;;12.60;99.90;;;;;;5074406;28;20376;-68
2022/10/07 03:47:57;;;;;;;;;;;12.50;99.90;;;;;;5074647;28;19995;-68
2022/10/07 03:50:24;;;;;;;;;;;12.20;99.90;;;;;;5075108;28;19908;-68
2022/10/07 03:52:49;;;;;;;;;;;12.10;99.90;;;;;;5074431;28;19995;-68
2022/10/07 03:55:15;;;;;;;;;;;12.00;99.90;;;;;;5074451;28;20364;-68
2022/10/07 03:57:50;;;;;;;;;;;11.90;99.90;;;;;;5074184;28;19957;-68
2022/10/07 04:00:20;;;;;;;;;;;11.70;99.90;;;;;;5074380;28;19908;-68
2022/10/07 04:02:46;;;;;;;;;;;11.80;99.90;;;;;;5074433;28;20268;-68
2022/10/07 04:05:14;;;;;;;;;;;11.70;99.90;;;;;;5074722;28;19957;-68
2022/10/07 04:07:42;;;;;;;;;;;11.70;99.90;;;;;;5074290;28;19904;-67
2022/10/07 04:10:08;;;;;;;;;;;11.60;99.90;;;;;;5072875;28;19912;-68
2022/10/07 04:12:34;;;;;;;;;;;11.60;99.90;;;;;;5073810;28;19911;-68
2022/10/07 04:15:00;;;;;;;;;;;11.60;99.90;;;;;;5074379;28;19913;-68
2022/10/07 04:17:26;;;;;;;;;;;11.60;99.90;;;;;;5073741;28;20006;-68
2022/10/07 04:19:52;;;;;;;;;;;11.50;99.90;;;;;;5074156;28;19951;-68
2022/10/07 04:22:18;;;;;;;;;;;11.50;99.90;;;;;;5074455;28;19951;-68
2022/10/07 04:25:32;;;;;;;;;;;11.40;99.90;;;;;;5073860;28;19904;-68
2022/10/07 04:27:29;;;;;;;;;;;11.40;99.90;;;;;;5073409;28;19974;-68
2022/10/07 04:29:54;;;;;;;;;;;11.30;99.90;;;;;;5074240;28;20382;-68
2022/10/07 04:32:21;;;;;;;;;;;11.30;99.90;;;;;;5073836;28;19912;-68
2022/10/07 04:34:50;;;;;;;;;;;11.30;99.90;;;;;;5073635;28;19957;-67
2022/10/07 04:37:16;;;;;;;;;;;11.30;99.90;;;;;;5073771;28;19904;-68
2022/10/07 04:39:41;;;;;;;;;;;11.20;99.90;;;;;;5072711;28;20381;-68
2022/10/07 04:42:07;;;;;;;;;;;11.20;99.90;;;;;;5073133;28;19905;-68
2022/10/07 04:44:32;;;;;;;;;;;11.20;99.90;;;;;;5073593;28;19918;-68
2022/10/07 04:46:58;;;;;;;;;;;11.30;99.90;;;;;;5073536;28;19982;-68
2022/10/07 04:49:25;;;;;;;;;;;11.20;99.90;;;;;;5073497;28;19958;-68
2022/10/07 04:51:51;;;;;;;;;;;11.20;99.90;;;;;;5073384;28;19954;-68
2022/10/07 04:54:18;;;;;;;;;;;11.20;99.90;;;;;;5073269;28;19914;-68
2022/10/07 04:56:47;;;;;;;;;;;11.20;99.90;;;;;;5073753;28;19904;-68
2022/10/07 04:59:12;;;;;;;;;;;11.10;99.90;;;;;;5073827;28;20297;-68
2022/10/07 05:01:38;;;;;;;;;;;11.00;99.90;;;;;;5073180;28;19916;-68
2022/10/07 05:04:03;;;;;;;;;;;11.00;99.90;;;;;;5073332;28;19911;-67
2022/10/07 05:06:29;;;;;;;;;;;11.10;99.90;;;;;;5073426;28;20005;-68
2022/10/07 05:08:55;;;;;;;;;;;11.00;99.90;;;;;;5073031;28;20360;-68
2022/10/07 05:11:21;;;;;;;;;;;11.00;99.90;;;;;;5072512;28;20007;-66
2022/10/07 05:13:46;;;;;;;;;;;10.90;99.90;;;;;;5073410;28;20003;-68
2022/10/07 05:16:12;;;;;;;;;;;10.90;99.90;;;;;;5073147;28;19913;-67
2022/10/07 05:18:38;;;;;;;;;;;10.90;99.90;;;;;;5072893;28;20348;-67
2022/10/07 05:21:05;;;;;;;;;;;11.10;99.90;;;;;;5072391;28;19906;-68
2022/10/07 05:23:30;;;;;;;;;;;11.10;99.90;;;;;;5072673;28;19915;-68
2022/10/07 05:26:00;;;;;;;;;;;11.10;99.90;;;;;;5072567;28;20344;-68
2022/10/07 05:28:26;;;;;;;;;;;11.00;99.90;;;;;;5073164;28;19908;-68
2022/10/07 05:31:02;;;;;;;;;;;10.90;99.90;;;;;;5072685;28;20282;-68
2022/10/07 05:33:30;;;;;;;;;;;10.80;99.90;;;;;;5072738;28;20318;-67
2022/10/07 05:35:56;;;;;;;;;;;10.80;99.90;;;;;;5072828;28;19912;-68
2022/10/07 05:38:22;;;;;;;;;;;10.90;99.90;;;;;;5073662;28;20284;-68
2022/10/07 05:40:54;;;;;;;;;;;10.80;99.90;;;;;;5071383;28;19908;-68
2022/10/07 05:43:19;;;;;;;;;;;10.80;99.90;;;;;;5072547;28;19904;-67
2022/10/07 05:45:46;;;;;;;;;;;10.80;99.90;;;;;;5072841;28;19961;-68
2022/10/07 05:48:11;;;;;;;;;;;10.70;99.90;;;;;;5072531;28;19908;-67
2022/10/07 05:50:38;;;;;;;;;;;10.70;99.90;;;;;;5072386;28;20011;-68
2022/10/07 05:53:04;;;;;;;;;;;10.80;99.90;;;;;;5072153;28;20354;-68
2022/10/07 05:55:29;;;;;;;;;;;10.80;99.90;;;;;;5072228;28;19916;-68
2022/10/07 05:57:55;;;;;;;;;;;10.90;99.90;;;;;;5073086;28;19911;-68
2022/10/07 06:00:20;;;;;;;;;;;10.90;99.90;;;;;;5072497;28;20350;-67
2022/10/07 06:02:46;;;;;;;;;;;10.90;99.90;;;;;;5071090;28;19905;-67
2022/10/07 06:05:13;;;;;;;;;;;11.00;99.90;;;;;;5072369;28;19928;-68
2022/10/07 06:07:38;;;;;;;;;;;10.90;99.90;;;;;;5072287;28;19908;-68
2022/10/07 06:13:06;;;;;;;;;;;10.70;99.90;;;;;;5072437;28;19957;-68
2022/10/07 06:15:32;;;;;;;;;;;10.90;99.90;;;;;;5071823;28;19920;-66
2022/10/07 06:17:57;;;;;;;;;;;11.10;99.90;;;;;;5072482;28;19942;-67
2022/10/07 06:20:23;;;;;;;;;;;11.10;99.90;;;;;;5072244;28;19905;-65
2022/10/07 06:22:51;;;;;;;;;;;11.00;99.90;;;;;;5071174;28;20020;-68
2022/10/07 06:25:17;;;;;;;;;;;11.00;99.90;;;;;;5071672;28;19904;-67
2022/10/07 06:27:42;;;;;;;;;;;11.00;99.90;;;;;;5072073;28;19908;-68
2022/10/07 06:30:08;;;;;;;;;;;11.10;99.90;;;;;;5072408;28;19905;-68
2022/10/07 06:32:33;;;;;;;;;;;11.20;99.90;;;;;;5071875;28;19954;-68
2022/10/07 06:34:59;;;;;;;;;;;11.30;99.90;;;;;;5075307;28;19915;-68
2022/10/07 06:37:25;;;;;;;;;;;11.50;99.90;;;;;;5075823;28;19993;-68
2022/10/07 06:39:51;;;;;;;;;;;11.70;99.90;;;;;;5075996;28;19914;-68
2022/10/07 06:42:16;;;;;;;;;;;11.90;99.90;;;;;;5075963;28;19911;-64
2022/10/07 06:44:42;;;;;;;;;;;12.10;99.90;;;;;;5075640;28;19908;-67
2022/10/07 06:47:07;;;;;;;;;;;12.40;99.90;;;;;;5075876;28;19958;-67
2022/10/07 06:49:33;;;;;;;;;;;12.80;99.90;;;;;;5076177;28;19966;-67
2022/10/07 06:51:58;;;;;;;;;;;13.30;99.90;;;;;;5075439;28;19931;-67
2022/10/07 06:54:24;;;;;;;;;;;13.70;99.90;;;;;;5075663;28;19999;-67
2022/10/07 06:56:49;;;;;;;;;;;14.10;99.90;;;;;;5075757;28;19912;-67
2022/10/07 06:59:15;;;;;;;;;;;14.50;99.90;;;;;;5075946;28;20011;-67
2022/10/07 07:01:40;;;;;;;;;;;14.80;99.90;;;;;;5075437;28;19909;-67
2022/10/07 07:04:06;;;;;;;;;;;15.40;99.90;;;;;;5075426;28;19912;-67
2022/10/07 07:06:35;;;;;;;;;;;15.70;99.90;;;;;;5075163;28;19911;-66
2022/10/07 07:09:03;;;;;;;;;;;15.40;99.90;;;;;;5075186;28;19958;-65
2022/10/07 07:11:34;;;;;;;;;;;15.60;99.90;;;;;;5074544;28;20356;-67
2022/10/07 07:14:01;;;;;;;;;;;16.50;99.90;;;;;;5074413;28;19920;-67
2022/10/07 07:16:27;;;;;;;;;;;17.10;99.90;;;;;;5074908;28;20011;-67
2022/10/07 07:18:53;;;;;;;;;;;17.10;99.90;;;;;;5075117;28;20403;-67
2022/10/07 07:21:19;;;;;;;;;;;17.70;99.90;;;;;;5074689;28;19938;-67
2022/10/07 07:23:44;;;;;;;;;;;18.40;99.90;;;;;;5075235;28;19908;-68
2022/10/07 07:26:10;;;;;;;;;;;19.20;99.90;;;;;;5074999;28;19958;-65
2022/10/07 07:28:36;;;;;;;;;;;19.80;99.90;;;;;;5075374;28;20392;-67
2022/10/07 07:31:09;;;;;;;;;;;19.00;99.90;;;;;;5074905;28;19991;-67
2022/10/07 07:33:37;;;;;;;;;;;19.20;99.90;;;;;;5074772;28;19911;-67
2022/10/07 07:36:22;;;;;;;;;;;19.00;99.90;;;;;;5074535;28;19916;-67
2022/10/07 07:38:52;;;;;;;;;;;18.80;99.90;;;;;;5074965;28;19904;-68
2022/10/07 07:41:23;;;;;;;;;;;19.60;99.90;;;;;;5075111;28;19937;-67
2022/10/07 07:43:50;;;;;;;;;;;19.40;99.90;;;;;;5074982;28;19911;-67
2022/10/07 07:46:16;;;;;;;;;;;20.10;99.90;;;;;;5074424;28;20324;-68
2022/10/07 07:48:42;;;;;;;;;;;19.90;99.90;;;;;;5073366;28;19922;-67
2022/10/07 07:51:07;;;;;;;;;;;19.70;99.90;;;;;;5074679;28;20033;-67
2022/10/07 07:53:35;;;;;;;;;;;20.70;99.90;;;;;;5074535;28;19904;-67
2022/10/07 07:56:02;;;;;;;;;;;20.90;99.90;;;;;;5074433;28;19916;-67
2022/10/07 07:58:28;;;;;;;;;;;21.30;99.90;;;;;;5074481;28;19994;-67
2022/10/07 08:00:58;;;;;;;;;;;21.00;99.90;;;;;;5074333;28;20061;-67
2022/10/07 08:03:24;;;;;;;;;;;19.80;99.90;;;;;;5074500;28;19904;-67
2022/10/07 08:05:50;;;;;;;;;;;20.50;99.90;;;;;;5073843;28;20030;-67
2022/10/07 08:08:16;;;;;;;;;;;21.30;99.90;;;;;;5074267;28;19904;-67
2022/10/07 08:10:41;;;;;;;;;;;21.70;99.90;;;;;;5074403;28;19958;-68
2022/10/07 08:13:08;;;;;;;;;;;23.50;99.90;;;;;;5074257;28;19999;-68
2022/10/07 08:15:34;;;;;;;;;;;23.80;99.90;;;;;;5073889;28;19923;-67
2022/10/07 08:18:00;;;;;;;;;;;23.00;99.90;;;;;;5073783;28;19924;-67
2022/10/07 08:20:26;;;;;;;;;;;22.20;99.90;;;;;;5074130;28;19953;-67
2022/10/07 08:22:52;;;;;;;;;;;23.50;99.90;;;;;;5073917;28;19912;-67
2022/10/07 08:25:17;;;;;;;;;;;22.90;99.90;;;;;;5073912;28;19943;-67
2022/10/07 08:27:43;;;;;;;;;;;22.30;99.90;;;;;;5074355;28;19904;-67
2022/10/07 08:30:08;;;;;;;;;;;22.00;99.90;;;;;;5073686;28;19908;-68
2022/10/07 08:32:34;;;;;;;;;;;23.30;99.90;;;;;;5073434;28;19904;-67
2022/10/07 08:35:00;;;;;;;;;;;23.80;99.90;;;;;;5073867;28;19919;-67
2022/10/07 08:37:25;;;;;;;;;;;24.10;99.90;;;;;;5074188;28;19904;-68
2022/10/07 08:39:51;;;;;;;;;;;24.90;99.90;;;;;;5073778;28;19911;-67
2022/10/07 08:42:25;;;;;;;;;;;24.40;99.90;;;;;;5073578;28;20441;-68
2022/10/07 08:44:50;;;;;;;;;;;23.80;99.90;;;;;;5073207;28;19924;-68
2022/10/07 08:47:19;;;;;;;;;;;24.40;99.90;;;;;;5073266;28;19904;-68
2022/10/07 08:49:52;;;;;;;;;;;24.60;99.90;;;;;;5073892;28;19908;-67
2022/10/07 08:52:24;;;;;;;;;;;25.40;99.90;;;;;;5073416;28;19974;-67
2022/10/07 08:54:50;;;;;;;;;;;27.00;99.90;;;;;;5073204;28;19924;-68
2022/10/07 08:57:30;;;;;;;;;;;25.90;99.90;;;;;;5072746;28;19905;-68
2022/10/07 08:59:58;;;;;;;;;;;25.10;99.90;;;;;;5073235;28;19946;-67
2022/10/07 09:02:30;;;;;;;;;;;26.10;99.90;;;;;;5072940;28;20418;-68
2022/10/07 09:05:05;;;;;;;;;;;26.80;99.90;;;;;;5073553;28;19904;-67
2022/10/07 09:07:30;;;;;;;;;;;25.60;99.90;;;;;;5073036;28;19919;-68
2022/10/07 09:10:02;;;;;;;;;;;26.00;99.90;;;;;;5073207;28;20002;-67
2022/10/07 09:12:35;;;;;;;;;;;25.30;99.90;;;;;;5072957;28;20358;-69
2022/10/07 09:15:02;;;;;;;;;;;27.30;99.90;;;;;;5073273;28;19934;-67
2022/10/07 09:17:27;;;;;;;;;;;27.60;99.90;;;;;;5072888;28;19917;-68
2022/10/07 09:19:55;;;;;;;;;;;27.90;99.90;;;;;;5072951;28;19904;-67
2022/10/07 09:22:23;;;;;;;;;;;29.20;99.90;;;;;;5072918;28;19911;-67
2022/10/07 09:24:53;;;;;;;;;;;27.60;99.90;;;;;;5071637;28;20283;-67
2022/10/07 09:27:21;;;;;;;;;;;27.10;99.90;;;;;;5072844;28;19904;-68
2022/10/07 09:29:47;;;;;;;;;;;27.90;99.90;;;;;;5072726;28;19905;-67
2022/10/07 09:32:16;;;;;;;;;;;29.10;99.90;;;;;;5072665;28;20366;-67
2022/10/07 09:34:41;;;;;;;;;;;27.90;99.90;;;;;;5072418;28;19911;-67
2022/10/07 09:37:08;;;;;;;;;;;27.60;99.90;;;;;;5072978;28;20022;-67
2022/10/07 09:39:34;;;;;;;;;;;27.70;99.90;;;;;;5072619;28;19904;-67
2022/10/07 09:42:00;;;;;;;;;;;26.90;99.90;;;;;;5072620;28;19908;-67
2022/10/07 09:44:26;;;;;;;;;;;26.90;99.90;;;;;;5072362;28;20383;-67
2022/10/07 09:46:58;;;;;;;;;;;26.20;99.90;;;;;;5072252;28;20286;-67
2022/10/07 09:49:29;;;;;;;;;;;28.10;99.90;;;;;;5072546;28;19947;-67
2022/10/07 09:52:02;;;;;;;;;;;27.60;99.90;;;;;;5072750;28;19911;-67
2022/10/07 09:54:29;;;;;;;;;;;28.00;99.90;;;;;;5072526;28;19904;-67
2022/10/07 09:56:56;;;;;;;;;;;27.10;99.90;;;;;;5072323;28;19943;-67
2022/10/07 09:59:29;;;;;;;;;;;24.90;99.90;;;;;;5072124;28;19904;-67
2022/10/07 10:01:59;;;;;;;;;;;25.40;99.90;;;;;;5072339;28;19954;-66
2022/10/07 10:04:33;;;;;;;;;;;25.90;99.90;;;;;;5072329;28;19952;-67
2022/10/07 10:07:01;;;;;;;;;;;25.90;99.90;;;;;;5072645;28;19910;-67
2022/10/07 10:09:26;;;;;;;;;;;25.70;99.90;;;;;;5076534;28;19904;-68
2022/10/07 10:12:05;;;;;;;;;;;26.90;99.90;;;;;;5076727;28;20392;-67
2022/10/07 10:14:57;;;;;;;;;;;26.50;99.90;;;;;;5076143;28;19908;-67
2022/10/07 10:17:26;;;;;;;;;;;27.40;99.90;;;;;;5073133;28;19956;-66
2022/10/07 10:19:52;;;;;;;;;;;26.50;99.90;;;;;;5076633;28;19912;-66
2022/10/07 10:22:28;;;;;;;;;;;26.40;99.90;;;;;;5076453;28;19904;-66
2022/10/07 10:27:44;;;;;;;;;;;27.40;99.90;;;;;;5076507;28;20007;-66
2022/10/07 10:30:20;;;;;;;;;;;26.90;99.90;;;;;;5075732;28;19928;-67
2022/10/07 10:32:47;;;;;;;;;;;26.80;99.90;;;;;;5075994;28;19905;-67
2022/10/07 10:35:18;;;;;;;;;;;26.30;99.90;;;;;;5076353;28;19913;-66
2022/10/07 10:37:44;;;;;;;;;;;26.20;99.90;;;;;;5075920;28;20379;-67
2022/10/07 10:40:22;;;;;;;;;;;27.80;99.90;;;;;;5076005;28;19909;-66
2022/10/07 10:42:53;;;;;;;;;;;26.80;99.90;;;;;;5075594;28;19904;-66
2022/10/07 10:45:19;;;;;;;;;;;26.50;99.90;;;;;;5076177;28;20342;-66
2022/10/07 10:48:03;;;;;;;;;;;25.90;99.90;;;;;;5075957;28;20003;-66
2022/10/07 10:50:52;;;;;;;;;;;24.90;99.90;;;;;;5075745;28;19974;-67
2022/10/07 10:53:36;;;;;;;;;;;27.80;99.90;;;;;;5075716;28;19942;-66
2022/10/07 10:56:05;;;;;;;;;;;28.10;99.90;;;;;;5075553;28;19912;-67
2022/10/07 10:58:53;;;;;;;;;;;27.30;99.90;;;;;;5075277;28;20370;-67
2022/10/07 11:01:19;;;;;;;;;;;27.70;99.90;;;;;;5062514;28;19904;-66
2022/10/07 11:03:48;;;;;;;;;;;30.40;99.90;;;;;;5075542;28;19908;-66
2022/10/07 11:06:15;;;;;;;;;;;32.50;99.20;;;;;;5076059;28;20002;-66
2022/10/07 11:08:41;;;;;;;;;;;33.00;99.70;;;;;;5075365;28;19940;-67
2022/10/07 11:11:17;;;;;;;;;;;30.30;99.80;;;;;;5075290;28;19958;-66
2022/10/07 11:13:53;;;;;;;;;;;27.80;99.90;;;;;;5075110;28;20216;-66
2022/10/07 11:16:23;;;;;;;;;;;26.30;99.90;;;;;;5075091;28;20393;-66
2022/10/07 11:18:59;;;;;;;;;;;26.20;99.90;;;;;;5075216;28;19966;-66
2022/10/07 11:21:43;;;;;;;;;;;25.60;99.90;;;;;;5075074;28;19930;-67
2022/10/07 11:24:14;;;;;;;;;;;24.30;99.90;;;;;;5075016;28;19931;-67
2022/10/07 11:26:51;;;;;;;;;;;25.60;99.90;;;;;;5075159;28;20313;-67
2022/10/07 11:29:49;;;;;;;;;;;26.80;99.90;;;;;;5075114;28;19905;-67
2022/10/07 11:32:47;;;;;;;;;;;26.40;99.90;;;;;;5012823;28;20017;-67
2022/10/07 11:35:12;;;;;;;;;;;27.20;99.90;;;;;;4973650;28;20392;-67
2022/10/07 11:37:43;;;;;;;;;;;26.10;99.90;;;;;;4974026;28;19914;-67
2022/10/07 11:40:09;;;;;;;;;;;25.40;99.90;;;;;;4974290;28;19906;-67
2022/10/07 11:42:41;;;;;;;;;;;26.30;99.90;;;;;;4973568;28;19913;-67
2022/10/07 11:45:08;;;;;;;;;;;26.90;99.90;;;;;;4973570;28;20403;-67
2022/10/07 11:47:54;;;;;;;;;;;25.60;99.90;;;;;;4974105;28;19910;-67
2022/10/07 11:50:31;;;;;;;;;;;24.60;99.90;;;;;;4973204;28;19910;-66
2022/10/07 11:53:04;;;;;;;;;;;24.80;99.90;;;;;;4973679;28;20371;-67
2022/10/07 11:55:35;;;;;;;;;;;24.50;99.90;;;;;;4973046;28;19929;-68
2022/10/07 11:58:05;;;;;;;;;;;25.60;99.90;;;;;;4973404;28;19910;-67
2022/10/07 12:00:34;;;;;;;;;;;25.60;99.90;;;;;;4973262;28;19906;-67
2022/10/07 12:03:18;;;;;;;;;;;25.80;99.90;;;;;;4973664;28;19906;-67
2022/10/07 12:05:49;;;;;;;;;;;26.00;99.90;;;;;;4973726;28;20058;-64
2022/10/07 12:08:37;;;;;;;;;;;28.10;99.90;;;;;;5013339;28;20407;-79
2022/10/07 12:11:26;;;;;;;;;;;29.80;99.90;;;;;;5050377;28;19905;-68
2022/10/07 12:13:52;;;;;;;;;;;27.90;99.90;;;;;;5065317;28;20286;-67
2022/10/07 12:16:26;;;;;;;;;;;27.90;99.90;;;;;;5074332;28;19916;-66
2022/10/07 12:19:18;;;;;;;;;;;27.90;99.90;;;;;;5074157;28;19912;-67
2022/10/07 12:22:01;;;;;;;;;;;26.90;99.90;;;;;;5070843;28;19904;-66
2022/10/07 12:24:28;;;;;;;;;;;26.80;99.90;;;;;;5073426;28;19930;-66
2022/10/07 12:26:54;;;;;;;;;;;28.10;99.90;;;;;;5073904;28;19905;-66
2022/10/07 12:29:22;;;;;;;;;;;28.90;99.90;;;;;;5074469;28;19932;-67
2022/10/07 12:31:48;;;;;;;;;;;28.70;99.90;;;;;;5072740;28;19905;-67
2022/10/07 12:34:20;;;;;;;;;;;28.00;99.90;;;;;;5073820;28;19908;-67
2022/10/07 12:36:46;;;;;;;;;;;28.10;99.90;;;;;;5073475;28;19913;-67
2022/10/07 12:39:11;;;;;;;;;;;27.70;99.90;;;;;;5073565;28;20003;-66
2022/10/07 12:41:38;;;;;;;;;;;27.50;99.90;;;;;;5074030;28;19904;-67
2022/10/07 12:44:07;;;;;;;;;;;26.80;99.90;;;;;;5074135;28;19950;-67
2022/10/07 12:46:51;;;;;;;;;;;27.80;99.90;;;;;;5073463;28;19908;-67
2022/10/07 12:49:36;;;;;;;;;;;28.90;99.90;;;;;;5073716;28;19908;-67
2022/10/07 12:52:06;;;;;;;;;;;29.00;99.90;;;;;;5073194;28;19912;-67
2022/10/07 12:54:35;;;;;;;;;;;29.70;99.90;;;;;;5073490;28;20007;-67
2022/10/07 12:57:01;;;;;;;;;;;29.60;99.90;;;;;;5073378;28;19916;-67
2022/10/07 12:59:48;;;;;;;;;;;29.90;99.90;;;;;;5073429;28;19949;-66
2022/10/07 13:02:30;;;;;;;;;;;29.60;99.90;;;;;;5073147;28;19908;-67
2022/10/07 13:04:55;;;;;;;;;;;28.80;99.90;;;;;;5073450;28;20358;-67
2022/10/07 13:07:24;;;;;;;;;;;27.20;99.90;;;;;;5072950;28;19919;-67
2022/10/07 13:10:02;;;;;;;;;;;27.40;99.90;;;;;;5072578;28;19908;-67
2022/10/07 13:12:33;;;;;;;;;;;26.90;99.90;;;;;;5072890;28;19912;-67
2022/10/07 13:15:22;;;;;;;;;;;27.60;99.90;;;;;;5072948;28;19999;-67
2022/10/07 13:17:56;;;;;;;;;;;28.20;99.90;;;;;;5064536;28;20019;-67
2022/10/07 13:20:26;;;;;;;;;;;29.40;99.90;;;;;;5073306;28;20270;-67
2022/10/07 13:22:51;;;;;;;;;;;29.30;99.90;;;;;;5072390;28;19904;-67
2022/10/07 13:25:18;;;;;;;;;;;27.30;99.90;;;;;;5072903;28;19904;-66
2022/10/07 13:27:47;;;;;;;;;;;27.40;99.90;;;;;;5072556;28;19995;-66
2022/10/07 13:30:31;;;;;;;;;;;27.10;99.90;;;;;;5072695;28;19908;-66
2022/10/07 13:33:10;;;;;;;;;;;27.60;99.90;;;;;;5072748;28;19958;-66
2022/10/07 13:35:36;;;;;;;;;;;27.60;99.90;;;;;;5072611;28;19966;-66
2022/10/07 13:38:02;;;;;;;;;;;27.90;99.90;;;;;;5072710;28;19904;-66
2022/10/07 13:40:33;;;;;;;;;;;27.30;99.90;;;;;;5072728;28;19995;-66
2022/10/07 13:43:05;;;;;;;;;;;28.20;99.90;;;;;;5072376;28;19927;-66
2022/10/07 13:45:38;;;;;;;;;;;27.50;99.90;;;;;;5072379;28;19917;-66
2022/10/07 13:48:04;;;;;;;;;;;27.90;99.90;;;;;;5073004;28;19904;-66
2022/10/07 13:50:29;;;;;;;;;;;26.90;99.90;;;;;;5072442;28;19904;-66
2022/10/07 13:52:56;;;;;;;;;;;27.30;99.90;;;;;;5072213;28;20282;-66
2022/10/07 13:55:24;;;;;;;;;;;27.70;99.90;;;;;;5072925;28;19916;-66
2022/10/07 13:57:50;;;;;;;;;;;28.00;99.90;;;;;;5072430;28;19981;-66
2022/10/07 14:00:16;;;;;;;;;;;27.60;99.90;;;;;;5072451;28;19948;-66
2022/10/07 14:02:42;;;;;;;;;;;26.40;99.90;;;;;;5072412;28;19905;-66
2022/10/07 14:05:18;;;;;;;;;;;26.60;99.90;;;;;;5072335;28;19908;-66
2022/10/07 14:07:44;;;;;;;;;;;27.00;99.90;;;;;;5070890;28;20668;-66
2022/10/07 14:10:11;;;;;;;;;;;26.80;99.90;;;;;;5072606;28;19911;-66
2022/10/07 14:12:44;;;;;;;;;;;28.20;99.90;;;;;;5072259;28;19904;-66
2022/10/07 14:15:14;;;;;;;;;;;28.60;99.90;;;;;;5072387;28;19969;-66
2022/10/07 14:17:42;;;;;;;;;;;28.00;99.90;;;;;;5072208;28;20401;-66
2022/10/07 14:20:19;;;;;;;;;;;27.30;99.90;;;;;;5072032;28;19905;-66
2022/10/07 14:22:47;;;;;;;;;;;26.90;99.90;;;;;;5072112;28;19908;-66
2022/10/07 14:25:20;;;;;;;;;;;27.60;99.90;;;;;;5072158;28;19904;-67
2022/10/07 14:27:50;;;;;;;;;;;27.50;99.90;;;;;;5072446;28;19904;-65
2022/10/07 14:30:25;;;;;;;;;;;27.70;99.90;;;;;;5072407;28;19904;-67
2022/10/07 14:36:20;;;;;;;;;;;27.30;99.90;;;;;;5072164;28;20336;-66
2022/10/07 14:38:47;;;;;;;;;;;27.20;99.90;;;;;;5069389;28;19910;-66